sensor_id;sensor_type;location;lat;lon;timestamp;P1;durP1;ratioP1;P2;durP2;ratioP2
70761;SDS011;58360;0.000;0.000;2022-12-20T00:01:21;4.88;;;2.47;;
70761;SDS011;58360;0.000;0.000;2022-12-20T00:03:49;7.72;;;2.78;;
70761;SDS011;58360;0.000;0.000;2022-12-20T00:06:16;7.95;;;3.10;;
70761;SDS011;58360;0.000;0.000;2022-12-20T00:08:42;6.25;;;2.47;;
70761;SDS011;58360;0.000;0.000;2022-12-20T00:11:09;6.28;;;2.50;;
70761;SDS011;58360;0.000;0.000;2022-12-20T00:13:35;6.72;;;2.63;;
70761;SDS011;58360;0.000;0.000;2022-12-20T00:16:02;6.47;;;2.90;;
70761;SDS011;58360;0.000;0.000;2022-12-20T00:18:31;6.43;;;2.30;;
70761;SDS011;58360;0.000;0.000;2022-12-20T00:20:57;9.95;;;2.95;;
70761;SDS011;58360;0.000;0.000;2022-12-20T00:23:24;7.60;;;2.60;;
70761;SDS011;58360;0.000;0.000;2022-12-20T00:25:50;6.30;;;2.95;;
70761;SDS011;58360;0.000;0.000;2022-12-20T00:28:15;5.32;;;2.75;;
70761;SDS011;58360;0.000;0.000;2022-12-20T00:30:41;6.10;;;2.65;;
70761;SDS011;58360;0.000;0.000;2022-12-20T00:33:07;6.07;;;3.40;;
70761;SDS011;58360;0.000;0.000;2022-12-20T00:35:33;5.40;;;2.78;;
70761;SDS011;58360;0.000;0.000;2022-12-20T00:37:58;6.75;;;2.92;;
70761;SDS011;58360;0.000;0.000;2022-12-20T00:40:24;7.82;;;3.08;;
70761;SDS011;58360;0.000;0.000;2022-12-20T00:42:50;7.85;;;2.90;;
70761;SDS011;58360;0.000;0.000;2022-12-20T00:45:15;6.28;;;3.13;;
70761;SDS011;58360;0.000;0.000;2022-12-20T00:47:41;9.02;;;2.85;;
70761;SDS011;58360;0.000;0.000;2022-12-20T00:50:07;7.78;;;3.00;;
70761;SDS011;58360;0.000;0.000;2022-12-20T00:52:33;7.32;;;3.03;;
70761;SDS011;58360;0.000;0.000;2022-12-20T00:54:58;6.20;;;2.97;;
70761;SDS011;58360;0.000;0.000;2022-12-20T00:57:24;6.88;;;2.80;;
70761;SDS011;58360;0.000;0.000;2022-12-20T00:59:49;6.88;;;3.28;;
70761;SDS011;58360;0.000;0.000;2022-12-20T01:02:15;8.73;;;3.10;;
70761;SDS011;58360;0.000;0.000;2022-12-20T01:04:41;6.82;;;2.85;;
70761;SDS011;58360;0.000;0.000;2022-12-20T01:07:06;6.18;;;3.10;;
70761;SDS011;58360;0.000;0.000;2022-12-20T01:09:32;6.00;;;2.90;;
70761;SDS011;58360;0.000;0.000;2022-12-20T01:11:58;6.30;;;3.03;;
70761;SDS011;58360;0.000;0.000;2022-12-20T01:14:23;7.90;;;3.42;;
70761;SDS011;58360;0.000;0.000;2022-12-20T01:16:49;8.50;;;3.03;;
70761;SDS011;58360;0.000;0.000;2022-12-20T01:19:16;5.70;;;2.90;;
70761;SDS011;58360;0.000;0.000;2022-12-20T01:21:42;8.77;;;3.00;;
70761;SDS011;58360;0.000;0.000;2022-12-20T01:24:18;8.88;;;3.30;;
70761;SDS011;58360;0.000;0.000;2022-12-20T01:26:47;7.18;;;2.90;;
70761;SDS011;58360;0.000;0.000;2022-12-20T01:29:12;8.68;;;2.88;;
70761;SDS011;58360;0.000;0.000;2022-12-20T01:31:39;7.65;;;3.00;;
70761;SDS011;58360;0.000;0.000;2022-12-20T01:34:05;10.35;;;3.05;;
70761;SDS011;58360;0.000;0.000;2022-12-20T01:36:32;5.72;;;2.85;;
70761;SDS011;58360;0.000;0.000;2022-12-20T01:39:03;6.63;;;2.67;;
70761;SDS011;58360;0.000;0.000;2022-12-20T01:41:30;5.93;;;2.75;;
70761;SDS011;58360;0.000;0.000;2022-12-20T01:43:57;6.70;;;3.08;;
70761;SDS011;58360;0.000;0.000;2022-12-20T01:46:26;8.60;;;2.95;;
70761;SDS011;58360;0.000;0.000;2022-12-20T01:51:35;5.80;;;3.10;;
70761;SDS011;58360;0.000;0.000;2022-12-20T01:54:13;7.07;;;2.65;;
70761;SDS011;58360;0.000;0.000;2022-12-20T01:56:50;5.82;;;2.33;;
70761;SDS011;58360;0.000;0.000;2022-12-20T01:59:22;10.60;;;2.75;;
70761;SDS011;58360;0.000;0.000;2022-12-20T02:01:50;6.85;;;2.92;;
70761;SDS011;58360;0.000;0.000;2022-12-20T02:04:15;7.50;;;2.75;;
70761;SDS011;58360;0.000;0.000;2022-12-20T02:06:41;5.82;;;2.60;;
70761;SDS011;58360;0.000;0.000;2022-12-20T02:09:07;5.95;;;2.90;;
70761;SDS011;58360;0.000;0.000;2022-12-20T02:11:36;7.07;;;2.50;;
70761;SDS011;58360;0.000;0.000;2022-12-20T02:17:16;5.55;;;2.42;;
70761;SDS011;58360;0.000;0.000;2022-12-20T02:26:49;7.32;;;3.20;;
70761;SDS011;58360;0.000;0.000;2022-12-20T02:32:51;6.82;;;2.72;;
70761;SDS011;58360;0.000;0.000;2022-12-20T02:35:25;10.15;;;2.85;;
70761;SDS011;58360;0.000;0.000;2022-12-20T02:37:54;9.02;;;2.90;;
70761;SDS011;58360;0.000;0.000;2022-12-20T02:40:26;5.28;;;2.60;;
70761;SDS011;58360;0.000;0.000;2022-12-20T02:42:59;6.15;;;2.65;;
70761;SDS011;58360;0.000;0.000;2022-12-20T02:45:31;5.20;;;2.65;;
70761;SDS011;58360;0.000;0.000;2022-12-20T02:48:00;7.60;;;2.88;;
70761;SDS011;58360;0.000;0.000;2022-12-20T02:50:33;6.82;;;2.65;;
70761;SDS011;58360;0.000;0.000;2022-12-20T02:55:40;6.95;;;2.95;;
70761;SDS011;58360;0.000;0.000;2022-12-20T03:00:59;9.27;;;2.80;;
70761;SDS011;58360;0.000;0.000;2022-12-20T03:03:33;7.82;;;2.72;;
70761;SDS011;58360;0.000;0.000;2022-12-20T03:06:00;6.85;;;2.80;;
70761;SDS011;58360;0.000;0.000;2022-12-20T03:08:26;4.72;;;2.55;;
70761;SDS011;58360;0.000;0.000;2022-12-20T03:10:52;8.25;;;3.22;;
70761;SDS011;58360;0.000;0.000;2022-12-20T03:13:19;5.22;;;2.60;;
70761;SDS011;58360;0.000;0.000;2022-12-20T03:15:45;7.93;;;3.20;;
70761;SDS011;58360;0.000;0.000;2022-12-20T03:18:11;10.73;;;3.15;;
70761;SDS011;58360;0.000;0.000;2022-12-20T03:20:37;7.93;;;2.90;;
70761;SDS011;58360;0.000;0.000;2022-12-20T03:23:03;8.45;;;3.15;;
70761;SDS011;58360;0.000;0.000;2022-12-20T03:25:29;6.07;;;2.40;;
70761;SDS011;58360;0.000;0.000;2022-12-20T03:27:55;6.38;;;2.83;;
70761;SDS011;58360;0.000;0.000;2022-12-20T03:30:20;4.80;;;2.40;;
70761;SDS011;58360;0.000;0.000;2022-12-20T03:32:46;8.63;;;2.78;;
70761;SDS011;58360;0.000;0.000;2022-12-20T03:35:12;5.35;;;2.80;;
70761;SDS011;58360;0.000;0.000;2022-12-20T03:37:38;11.93;;;2.67;;
70761;SDS011;58360;0.000;0.000;2022-12-20T03:40:04;6.28;;;2.80;;
70761;SDS011;58360;0.000;0.000;2022-12-20T03:42:30;8.05;;;2.72;;
70761;SDS011;58360;0.000;0.000;2022-12-20T03:44:56;4.95;;;2.33;;
70761;SDS011;58360;0.000;0.000;2022-12-20T03:47:22;6.38;;;2.85;;
70761;SDS011;58360;0.000;0.000;2022-12-20T03:49:48;7.88;;;2.88;;
70761;SDS011;58360;0.000;0.000;2022-12-20T03:52:13;5.18;;;2.63;;
70761;SDS011;58360;0.000;0.000;2022-12-20T03:54:39;6.97;;;2.80;;
70761;SDS011;58360;0.000;0.000;2022-12-20T03:57:05;4.50;;;2.58;;
70761;SDS011;58360;0.000;0.000;2022-12-20T03:59:31;6.40;;;2.50;;
70761;SDS011;58360;0.000;0.000;2022-12-20T04:01:57;6.18;;;2.40;;
70761;SDS011;58360;0.000;0.000;2022-12-20T04:04:23;8.90;;;2.70;;
70761;SDS011;58360;0.000;0.000;2022-12-20T04:06:48;5.55;;;2.38;;
70761;SDS011;58360;0.000;0.000;2022-12-20T04:09:14;7.22;;;2.75;;
70761;SDS011;58360;0.000;0.000;2022-12-20T04:11:40;6.47;;;2.67;;
70761;SDS011;58360;0.000;0.000;2022-12-20T04:14:06;5.47;;;2.50;;
70761;SDS011;58360;0.000;0.000;2022-12-20T04:16:31;6.00;;;2.80;;
70761;SDS011;58360;0.000;0.000;2022-12-20T04:18:57;6.90;;;2.58;;
70761;SDS011;58360;0.000;0.000;2022-12-20T04:21:30;6.40;;;2.63;;
70761;SDS011;58360;0.000;0.000;2022-12-20T04:23:58;8.68;;;2.80;;
70761;SDS011;58360;0.000;0.000;2022-12-20T04:26:25;5.47;;;2.58;;
70761;SDS011;58360;0.000;0.000;2022-12-20T04:28:51;4.68;;;2.60;;
70761;SDS011;58360;0.000;0.000;2022-12-20T04:31:17;6.28;;;2.60;;
70761;SDS011;58360;0.000;0.000;2022-12-20T04:33:44;8.75;;;2.80;;
70761;SDS011;58360;0.000;0.000;2022-12-20T04:36:10;5.35;;;2.25;;
70761;SDS011;58360;0.000;0.000;2022-12-20T04:38:36;8.05;;;2.63;;
70761;SDS011;58360;0.000;0.000;2022-12-20T04:41:01;5.00;;;2.72;;
70761;SDS011;58360;0.000;0.000;2022-12-20T04:43:27;4.95;;;2.45;;
70761;SDS011;58360;0.000;0.000;2022-12-20T04:45:53;4.05;;;2.10;;
70761;SDS011;58360;0.000;0.000;2022-12-20T04:48:23;6.80;;;2.70;;
70761;SDS011;58360;0.000;0.000;2022-12-20T04:50:53;6.93;;;2.45;;
70761;SDS011;58360;0.000;0.000;2022-12-20T04:53:20;5.75;;;2.47;;
70761;SDS011;58360;0.000;0.000;2022-12-20T04:56:05;4.75;;;2.28;;
70761;SDS011;58360;0.000;0.000;2022-12-20T04:58:31;5.65;;;2.30;;
70761;SDS011;58360;0.000;0.000;2022-12-20T05:00:57;6.35;;;2.45;;
70761;SDS011;58360;0.000;0.000;2022-12-20T05:03:23;6.25;;;2.50;;
70761;SDS011;58360;0.000;0.000;2022-12-20T05:05:50;6.30;;;2.50;;
70761;SDS011;58360;0.000;0.000;2022-12-20T05:08:17;8.15;;;2.70;;
70761;SDS011;58360;0.000;0.000;2022-12-20T05:10:42;6.03;;;2.60;;
70761;SDS011;58360;0.000;0.000;2022-12-20T05:13:08;6.15;;;2.53;;
70761;SDS011;58360;0.000;0.000;2022-12-20T05:15:35;7.22;;;2.40;;
70761;SDS011;58360;0.000;0.000;2022-12-20T05:18:01;7.03;;;2.70;;
70761;SDS011;58360;0.000;0.000;2022-12-20T05:20:27;6.38;;;2.25;;
70761;SDS011;58360;0.000;0.000;2022-12-20T05:22:54;5.20;;;2.53;;
70761;SDS011;58360;0.000;0.000;2022-12-20T05:25:41;6.57;;;1.95;;
70761;SDS011;58360;0.000;0.000;2022-12-20T05:28:28;7.57;;;2.45;;
70761;SDS011;58360;0.000;0.000;2022-12-20T05:30:55;4.72;;;2.30;;
70761;SDS011;58360;0.000;0.000;2022-12-20T05:33:21;6.32;;;2.70;;
70761;SDS011;58360;0.000;0.000;2022-12-20T05:35:47;4.45;;;2.33;;
70761;SDS011;58360;0.000;0.000;2022-12-20T05:38:12;6.40;;;2.35;;
70761;SDS011;58360;0.000;0.000;2022-12-20T05:40:38;6.22;;;2.25;;
70761;SDS011;58360;0.000;0.000;2022-12-20T05:43:05;5.38;;;1.83;;
70761;SDS011;58360;0.000;0.000;2022-12-20T05:45:31;5.80;;;2.25;;
70761;SDS011;58360;0.000;0.000;2022-12-20T05:47:57;7.47;;;2.30;;
70761;SDS011;58360;0.000;0.000;2022-12-20T05:50:23;5.97;;;2.25;;
70761;SDS011;58360;0.000;0.000;2022-12-20T05:52:49;5.97;;;2.42;;
70761;SDS011;58360;0.000;0.000;2022-12-20T05:55:14;6.28;;;2.17;;
70761;SDS011;58360;0.000;0.000;2022-12-20T05:57:40;5.93;;;2.20;;
70761;SDS011;58360;0.000;0.000;2022-12-20T06:00:06;7.90;;;2.55;;
70761;SDS011;58360;0.000;0.000;2022-12-20T06:02:32;9.20;;;2.80;;
70761;SDS011;58360;0.000;0.000;2022-12-20T06:04:58;5.28;;;2.30;;
70761;SDS011;58360;0.000;0.000;2022-12-20T06:07:24;5.93;;;2.17;;
70761;SDS011;58360;0.000;0.000;2022-12-20T06:09:52;8.13;;;2.58;;
70761;SDS011;58360;0.000;0.000;2022-12-20T06:12:19;8.10;;;2.20;;
70761;SDS011;58360;0.000;0.000;2022-12-20T06:14:44;4.85;;;2.22;;
70761;SDS011;58360;0.000;0.000;2022-12-20T06:17:10;4.20;;;2.08;;
70761;SDS011;58360;0.000;0.000;2022-12-20T06:19:36;5.20;;;2.15;;
70761;SDS011;58360;0.000;0.000;2022-12-20T06:22:01;4.13;;;1.98;;
70761;SDS011;58360;0.000;0.000;2022-12-20T06:24:27;6.93;;;2.45;;
70761;SDS011;58360;0.000;0.000;2022-12-20T06:26:53;5.28;;;2.28;;
70761;SDS011;58360;0.000;0.000;2022-12-20T06:29:18;5.50;;;2.20;;
70761;SDS011;58360;0.000;0.000;2022-12-20T06:31:45;4.05;;;1.98;;
70761;SDS011;58360;0.000;0.000;2022-12-20T06:34:11;9.63;;;2.67;;
70761;SDS011;58360;0.000;0.000;2022-12-20T06:36:37;6.68;;;2.63;;
70761;SDS011;58360;0.000;0.000;2022-12-20T06:39:03;5.82;;;2.25;;
70761;SDS011;58360;0.000;0.000;2022-12-20T06:41:29;7.05;;;2.50;;
70761;SDS011;58360;0.000;0.000;2022-12-20T06:43:54;5.80;;;2.25;;
70761;SDS011;58360;0.000;0.000;2022-12-20T06:46:20;6.93;;;2.28;;
70761;SDS011;58360;0.000;0.000;2022-12-20T06:48:46;8.73;;;2.20;;
70761;SDS011;58360;0.000;0.000;2022-12-20T06:51:11;8.27;;;2.53;;
70761;SDS011;58360;0.000;0.000;2022-12-20T06:53:37;5.68;;;2.17;;
70761;SDS011;58360;0.000;0.000;2022-12-20T06:56:03;7.65;;;3.55;;
70761;SDS011;58360;0.000;0.000;2022-12-20T06:58:29;4.45;;;2.08;;
70761;SDS011;58360;0.000;0.000;2022-12-20T07:00:54;6.88;;;2.17;;
70761;SDS011;58360;0.000;0.000;2022-12-20T07:03:20;6.97;;;2.10;;
70761;SDS011;58360;0.000;0.000;2022-12-20T07:05:50;6.22;;;2.08;;
70761;SDS011;58360;0.000;0.000;2022-12-20T07:08:19;7.97;;;2.10;;
70761;SDS011;58360;0.000;0.000;2022-12-20T07:10:46;5.43;;;2.20;;
70761;SDS011;58360;0.000;0.000;2022-12-20T07:13:12;3.83;;;2.05;;
70761;SDS011;58360;0.000;0.000;2022-12-20T07:15:38;5.88;;;2.00;;
70761;SDS011;58360;0.000;0.000;2022-12-20T07:18:03;4.75;;;2.08;;
70761;SDS011;58360;0.000;0.000;2022-12-20T07:20:30;4.75;;;2.30;;
70761;SDS011;58360;0.000;0.000;2022-12-20T07:22:57;6.13;;;2.17;;
70761;SDS011;58360;0.000;0.000;2022-12-20T07:25:22;6.68;;;2.42;;
70761;SDS011;58360;0.000;0.000;2022-12-20T07:27:49;4.38;;;2.40;;
70761;SDS011;58360;0.000;0.000;2022-12-20T07:30:16;7.60;;;2.70;;
70761;SDS011;58360;0.000;0.000;2022-12-20T07:32:43;8.98;;;2.53;;
70761;SDS011;58360;0.000;0.000;2022-12-20T07:35:09;5.90;;;2.40;;
70761;SDS011;58360;0.000;0.000;2022-12-20T07:37:35;6.30;;;2.40;;
70761;SDS011;58360;0.000;0.000;2022-12-20T07:40:01;5.85;;;2.83;;
70761;SDS011;58360;0.000;0.000;2022-12-20T07:42:28;8.98;;;2.53;;
70761;SDS011;58360;0.000;0.000;2022-12-20T07:44:53;9.60;;;2.92;;
70761;SDS011;58360;0.000;0.000;2022-12-20T07:47:19;9.25;;;2.88;;
70761;SDS011;58360;0.000;0.000;2022-12-20T07:49:45;7.80;;;2.85;;
70761;SDS011;58360;0.000;0.000;2022-12-20T07:52:13;10.93;;;3.10;;
70761;SDS011;58360;0.000;0.000;2022-12-20T07:54:41;8.30;;;3.10;;
70761;SDS011;58360;0.000;0.000;2022-12-20T07:57:18;10.23;;;2.72;;
70761;SDS011;58360;0.000;0.000;2022-12-20T07:59:48;11.25;;;3.10;;
70761;SDS011;58360;0.000;0.000;2022-12-20T08:02:18;7.82;;;2.80;;
70761;SDS011;58360;0.000;0.000;2022-12-20T08:04:49;8.55;;;3.85;;
70761;SDS011;58360;0.000;0.000;2022-12-20T08:07:15;5.82;;;2.70;;
70761;SDS011;58360;0.000;0.000;2022-12-20T08:09:41;9.18;;;2.85;;
70761;SDS011;58360;0.000;0.000;2022-12-20T08:12:09;9.30;;;2.78;;
70761;SDS011;58360;0.000;0.000;2022-12-20T08:14:36;7.07;;;2.60;;
70761;SDS011;58360;0.000;0.000;2022-12-20T08:17:01;5.88;;;2.70;;
70761;SDS011;58360;0.000;0.000;2022-12-20T08:19:27;7.05;;;2.45;;
70761;SDS011;58360;0.000;0.000;2022-12-20T08:21:53;12.60;;;3.03;;
70761;SDS011;58360;0.000;0.000;2022-12-20T08:24:19;8.15;;;2.92;;
70761;SDS011;58360;0.000;0.000;2022-12-20T08:26:45;8.65;;;2.83;;
70761;SDS011;58360;0.000;0.000;2022-12-20T08:29:11;6.25;;;2.85;;
70761;SDS011;58360;0.000;0.000;2022-12-20T08:31:37;8.20;;;3.00;;
70761;SDS011;58360;0.000;0.000;2022-12-20T08:34:04;8.13;;;2.78;;
70761;SDS011;58360;0.000;0.000;2022-12-20T08:36:30;10.82;;;2.92;;
70761;SDS011;58360;0.000;0.000;2022-12-20T08:38:55;7.43;;;3.05;;
70761;SDS011;58360;0.000;0.000;2022-12-20T08:41:21;8.63;;;3.30;;
70761;SDS011;58360;0.000;0.000;2022-12-20T08:43:47;10.80;;;3.13;;
70761;SDS011;58360;0.000;0.000;2022-12-20T08:46:13;11.10;;;3.40;;
70761;SDS011;58360;0.000;0.000;2022-12-20T08:48:38;7.72;;;2.97;;
70761;SDS011;58360;0.000;0.000;2022-12-20T08:51:06;5.13;;;2.42;;
70761;SDS011;58360;0.000;0.000;2022-12-20T08:53:34;9.13;;;2.90;;
70761;SDS011;58360;0.000;0.000;2022-12-20T08:56:05;8.23;;;3.40;;
70761;SDS011;58360;0.000;0.000;2022-12-20T08:58:38;11.23;;;2.80;;
70761;SDS011;58360;0.000;0.000;2022-12-20T09:01:05;8.20;;;3.20;;
70761;SDS011;58360;0.000;0.000;2022-12-20T09:03:33;8.75;;;2.92;;
70761;SDS011;58360;0.000;0.000;2022-12-20T09:06:00;11.85;;;3.10;;
70761;SDS011;58360;0.000;0.000;2022-12-20T09:08:28;7.57;;;3.00;;
70761;SDS011;58360;0.000;0.000;2022-12-20T09:11:01;13.82;;;3.60;;
70761;SDS011;58360;0.000;0.000;2022-12-20T09:13:28;7.00;;;2.60;;
70761;SDS011;58360;0.000;0.000;2022-12-20T09:15:54;5.40;;;2.80;;
70761;SDS011;58360;0.000;0.000;2022-12-20T09:18:20;6.53;;;3.00;;
70761;SDS011;58360;0.000;0.000;2022-12-20T09:20:45;10.25;;;3.03;;
70761;SDS011;58360;0.000;0.000;2022-12-20T09:23:11;5.35;;;2.65;;
70761;SDS011;58360;0.000;0.000;2022-12-20T09:25:36;9.05;;;2.85;;
70761;SDS011;58360;0.000;0.000;2022-12-20T09:28:03;8.52;;;3.30;;
70761;SDS011;58360;0.000;0.000;2022-12-20T09:30:29;10.68;;;3.15;;
70761;SDS011;58360;0.000;0.000;2022-12-20T09:32:54;9.23;;;3.03;;
70761;SDS011;58360;0.000;0.000;2022-12-20T09:35:21;9.15;;;3.20;;
70761;SDS011;58360;0.000;0.000;2022-12-20T09:37:46;5.05;;;3.05;;
70761;SDS011;58360;0.000;0.000;2022-12-20T09:40:19;8.95;;;2.65;;
70761;SDS011;58360;0.000;0.000;2022-12-20T09:42:48;10.35;;;2.83;;
70761;SDS011;58360;0.000;0.000;2022-12-20T09:45:18;7.30;;;2.90;;
70761;SDS011;58360;0.000;0.000;2022-12-20T09:47:51;7.07;;;2.63;;
70761;SDS011;58360;0.000;0.000;2022-12-20T09:50:17;8.90;;;3.33;;
70761;SDS011;58360;0.000;0.000;2022-12-20T09:58:26;8.25;;;3.65;;
70761;SDS011;58360;0.000;0.000;2022-12-20T10:00:55;10.70;;;3.10;;
70761;SDS011;58360;0.000;0.000;2022-12-20T10:03:27;8.88;;;2.92;;
70761;SDS011;58360;0.000;0.000;2022-12-20T10:05:59;8.88;;;3.60;;
70761;SDS011;58360;0.000;0.000;2022-12-20T10:25:48;8.80;;;3.03;;
70761;SDS011;58360;0.000;0.000;2022-12-20T10:28:16;9.80;;;3.22;;
70761;SDS011;58360;0.000;0.000;2022-12-20T10:30:48;10.10;;;3.47;;
70761;SDS011;58360;0.000;0.000;2022-12-20T10:33:21;10.07;;;3.35;;
70761;SDS011;58360;0.000;0.000;2022-12-20T10:35:48;9.13;;;3.35;;
70761;SDS011;58360;0.000;0.000;2022-12-20T10:38:15;7.18;;;3.60;;
70761;SDS011;58360;0.000;0.000;2022-12-20T10:40:46;12.13;;;3.75;;
70761;SDS011;58360;0.000;0.000;2022-12-20T10:43:23;9.82;;;3.38;;
70761;SDS011;58360;0.000;0.000;2022-12-20T10:46:05;10.25;;;4.03;;
70761;SDS011;58360;0.000;0.000;2022-12-20T10:48:33;10.18;;;3.60;;
70761;SDS011;58360;0.000;0.000;2022-12-20T10:53:32;8.95;;;3.67;;
70761;SDS011;58360;0.000;0.000;2022-12-20T10:58:55;9.98;;;3.72;;
70761;SDS011;58360;0.000;0.000;2022-12-20T11:01:21;10.35;;;5.18;;
70761;SDS011;58360;0.000;0.000;2022-12-20T11:06:18;9.93;;;4.05;;
70761;SDS011;58360;0.000;0.000;2022-12-20T11:08:46;12.40;;;4.03;;
70761;SDS011;58360;0.000;0.000;2022-12-20T11:11:22;8.85;;;3.88;;
70761;SDS011;58360;0.000;0.000;2022-12-20T11:13:49;9.00;;;3.50;;
70761;SDS011;58360;0.000;0.000;2022-12-20T11:36:29;7.47;;;3.80;;
70761;SDS011;58360;0.000;0.000;2022-12-20T11:39:55;16.38;;;5.75;;
70761;SDS011;58360;0.000;0.000;2022-12-20T11:44:38;16.90;;;4.80;;
70761;SDS011;58360;0.000;0.000;2022-12-20T11:55:02;9.85;;;4.25;;
70761;SDS011;58360;0.000;0.000;2022-12-20T11:57:39;12.60;;;3.85;;
70761;SDS011;58360;0.000;0.000;2022-12-20T12:00:11;8.20;;;3.78;;
70761;SDS011;58360;0.000;0.000;2022-12-20T12:02:45;10.13;;;4.00;;
70761;SDS011;58360;0.000;0.000;2022-12-20T12:05:19;12.32;;;4.20;;
70761;SDS011;58360;0.000;0.000;2022-12-20T12:07:51;11.77;;;4.28;;
70761;SDS011;58360;0.000;0.000;2022-12-20T12:10:25;10.20;;;4.05;;
70761;SDS011;58360;0.000;0.000;2022-12-20T12:18:40;7.97;;;3.85;;
70761;SDS011;58360;0.000;0.000;2022-12-20T12:21:07;13.35;;;6.75;;
70761;SDS011;58360;0.000;0.000;2022-12-20T12:26:27;8.38;;;3.70;;
70761;SDS011;58360;0.000;0.000;2022-12-20T12:28:59;11.07;;;4.30;;
70761;SDS011;58360;0.000;0.000;2022-12-20T12:31:35;10.45;;;4.47;;
70761;SDS011;58360;0.000;0.000;2022-12-20T12:34:27;9.98;;;4.38;;
70761;SDS011;58360;0.000;0.000;2022-12-20T12:50:03;7.78;;;4.00;;
70761;SDS011;58360;0.000;0.000;2022-12-20T12:52:39;9.20;;;3.83;;
70761;SDS011;58360;0.000;0.000;2022-12-20T12:55:35;10.40;;;4.03;;
70761;SDS011;58360;0.000;0.000;2022-12-20T13:00:50;11.77;;;4.55;;
70761;SDS011;58360;0.000;0.000;2022-12-20T13:11:33;11.68;;;4.53;;
70761;SDS011;58360;0.000;0.000;2022-12-20T13:16:45;10.32;;;5.03;;
70761;SDS011;58360;0.000;0.000;2022-12-20T13:19:13;12.73;;;5.18;;
70761;SDS011;58360;0.000;0.000;2022-12-20T13:27:21;14.48;;;4.72;;
70761;SDS011;58360;0.000;0.000;2022-12-20T13:40:47;11.02;;;4.68;;
70761;SDS011;58360;0.000;0.000;2022-12-20T13:43:40;12.60;;;5.50;;
70761;SDS011;58360;0.000;0.000;2022-12-20T13:51:02;11.10;;;5.35;;
70761;SDS011;58360;0.000;0.000;2022-12-20T13:53:29;11.30;;;4.70;;
70761;SDS011;58360;0.000;0.000;2022-12-20T13:55:55;8.45;;;4.63;;
70761;SDS011;58360;0.000;0.000;2022-12-20T13:58:23;9.98;;;4.90;;
70761;SDS011;58360;0.000;0.000;2022-12-20T14:00:51;14.30;;;5.18;;
70761;SDS011;58360;0.000;0.000;2022-12-20T14:03:23;12.07;;;4.80;;
70761;SDS011;58360;0.000;0.000;2022-12-20T14:05:58;8.57;;;5.15;;
70761;SDS011;58360;0.000;0.000;2022-12-20T14:08:28;11.43;;;4.55;;
70761;SDS011;58360;0.000;0.000;2022-12-20T14:11:16;10.15;;;5.35;;
70761;SDS011;58360;0.000;0.000;2022-12-20T14:13:57;8.75;;;4.88;;
70761;SDS011;58360;0.000;0.000;2022-12-20T14:16:25;12.38;;;5.50;;
70761;SDS011;58360;0.000;0.000;2022-12-20T14:21:21;10.55;;;5.00;;
70761;SDS011;58360;0.000;0.000;2022-12-20T14:23:48;10.63;;;5.05;;
70761;SDS011;58360;0.000;0.000;2022-12-20T14:26:21;13.52;;;5.20;;
70761;SDS011;58360;0.000;0.000;2022-12-20T14:28:49;11.05;;;5.50;;
70761;SDS011;58360;0.000;0.000;2022-12-20T14:36:39;9.20;;;5.65;;
70761;SDS011;58360;0.000;0.000;2022-12-20T14:39:26;13.57;;;5.53;;
70761;SDS011;58360;0.000;0.000;2022-12-20T14:41:59;12.05;;;5.50;;
70761;SDS011;58360;0.000;0.000;2022-12-20T14:44:27;10.32;;;5.40;;
70761;SDS011;58360;0.000;0.000;2022-12-20T14:46:55;9.18;;;5.53;;
70761;SDS011;58360;0.000;0.000;2022-12-20T14:55:37;11.32;;;5.10;;
70761;SDS011;58360;0.000;0.000;2022-12-20T14:57:44;10.93;;;4.80;;
70761;SDS011;58360;0.000;0.000;2022-12-20T15:08:12;12.70;;;6.78;;
70761;SDS011;58360;0.000;0.000;2022-12-20T15:10:41;11.98;;;6.32;;
70761;SDS011;58360;0.000;0.000;2022-12-20T15:13:16;13.30;;;6.40;;
70761;SDS011;58360;0.000;0.000;2022-12-20T15:15:43;12.30;;;5.57;;
70761;SDS011;58360;0.000;0.000;2022-12-20T15:18:10;11.00;;;5.93;;
70761;SDS011;58360;0.000;0.000;2022-12-20T15:20:40;9.43;;;5.32;;
70761;SDS011;58360;0.000;0.000;2022-12-20T15:23:40;14.52;;;6.07;;
70761;SDS011;58360;0.000;0.000;2022-12-20T15:25:59;9.50;;;5.50;;
70761;SDS011;58360;0.000;0.000;2022-12-20T15:28:25;13.38;;;5.35;;
70761;SDS011;58360;0.000;0.000;2022-12-20T15:30:52;12.38;;;5.78;;
70761;SDS011;58360;0.000;0.000;2022-12-20T15:33:26;10.80;;;6.03;;
70761;SDS011;58360;0.000;0.000;2022-12-20T15:35:55;10.98;;;5.60;;
70761;SDS011;58360;0.000;0.000;2022-12-20T15:38:24;10.40;;;5.35;;
70761;SDS011;58360;0.000;0.000;2022-12-20T15:40:52;12.70;;;5.72;;
70761;SDS011;58360;0.000;0.000;2022-12-20T15:43:20;12.95;;;5.88;;
70761;SDS011;58360;0.000;0.000;2022-12-20T15:45:49;13.63;;;6.13;;
70761;SDS011;58360;0.000;0.000;2022-12-20T15:48:21;13.95;;;5.97;;
70761;SDS011;58360;0.000;0.000;2022-12-20T15:50:48;11.20;;;6.13;;
70761;SDS011;58360;0.000;0.000;2022-12-20T15:53:17;11.30;;;5.90;;
70761;SDS011;58360;0.000;0.000;2022-12-20T15:55:48;11.52;;;6.15;;
70761;SDS011;58360;0.000;0.000;2022-12-20T15:58:14;10.75;;;5.72;;
70761;SDS011;58360;0.000;0.000;2022-12-20T16:00:40;13.27;;;6.60;;
70761;SDS011;58360;0.000;0.000;2022-12-20T16:03:12;11.57;;;6.45;;
70761;SDS011;58360;0.000;0.000;2022-12-20T16:05:44;12.38;;;6.85;;
70761;SDS011;58360;0.000;0.000;2022-12-20T16:08:10;9.70;;;6.20;;
70761;SDS011;58360;0.000;0.000;2022-12-20T16:10:36;12.88;;;6.78;;
70761;SDS011;58360;0.000;0.000;2022-12-20T16:13:02;17.35;;;7.40;;
70761;SDS011;58360;0.000;0.000;2022-12-20T16:15:28;17.42;;;7.93;;
70761;SDS011;58360;0.000;0.000;2022-12-20T16:17:54;11.93;;;6.90;;
70761;SDS011;58360;0.000;0.000;2022-12-20T16:20:20;12.70;;;7.03;;
70761;SDS011;58360;0.000;0.000;2022-12-20T16:22:45;17.13;;;7.72;;
70761;SDS011;58360;0.000;0.000;2022-12-20T16:25:33;12.65;;;7.75;;
70761;SDS011;58360;0.000;0.000;2022-12-20T16:28:00;11.88;;;7.38;;
70761;SDS011;58360;0.000;0.000;2022-12-20T16:30:27;11.35;;;7.38;;
70761;SDS011;58360;0.000;0.000;2022-12-20T16:32:53;11.90;;;7.30;;
70761;SDS011;58360;0.000;0.000;2022-12-20T16:37:48;13.77;;;7.40;;
70761;SDS011;58360;0.000;0.000;2022-12-20T16:40:13;12.65;;;7.90;;
70761;SDS011;58360;0.000;0.000;2022-12-20T16:42:39;14.35;;;8.38;;
70761;SDS011;58360;0.000;0.000;2022-12-20T16:45:05;14.85;;;8.48;;
70761;SDS011;58360;0.000;0.000;2022-12-20T16:50:04;14.15;;;7.72;;
70761;SDS011;58360;0.000;0.000;2022-12-20T16:52:32;14.57;;;8.32;;
70761;SDS011;58360;0.000;0.000;2022-12-20T16:55:01;16.85;;;8.43;;
70761;SDS011;58360;0.000;0.000;2022-12-20T16:57:27;11.85;;;7.72;;
70761;SDS011;58360;0.000;0.000;2022-12-20T16:59:53;13.30;;;8.40;;
70761;SDS011;58360;0.000;0.000;2022-12-20T17:04:55;13.07;;;7.85;;
70761;SDS011;58360;0.000;0.000;2022-12-20T17:07:21;12.80;;;8.52;;
70761;SDS011;58360;0.000;0.000;2022-12-20T17:09:47;12.50;;;8.20;;
70761;SDS011;58360;0.000;0.000;2022-12-20T17:12:13;12.45;;;8.23;;
70761;SDS011;58360;0.000;0.000;2022-12-20T17:14:40;15.50;;;8.77;;
70761;SDS011;58360;0.000;0.000;2022-12-20T17:17:06;14.82;;;8.90;;
70761;SDS011;58360;0.000;0.000;2022-12-20T17:19:32;14.70;;;8.90;;
70761;SDS011;58360;0.000;0.000;2022-12-20T17:21:58;16.85;;;9.00;;
70761;SDS011;58360;0.000;0.000;2022-12-20T17:24:24;17.17;;;8.95;;
70761;SDS011;58360;0.000;0.000;2022-12-20T17:26:50;14.98;;;8.23;;
70761;SDS011;58360;0.000;0.000;2022-12-20T17:29:15;15.82;;;9.05;;
70761;SDS011;58360;0.000;0.000;2022-12-20T17:31:43;14.57;;;8.82;;
70761;SDS011;58360;0.000;0.000;2022-12-20T17:34:20;12.75;;;8.75;;
70761;SDS011;58360;0.000;0.000;2022-12-20T17:36:52;16.45;;;8.55;;
70761;SDS011;58360;0.000;0.000;2022-12-20T17:39:19;14.48;;;9.07;;
70761;SDS011;58360;0.000;0.000;2022-12-20T17:41:45;13.27;;;8.50;;
70761;SDS011;58360;0.000;0.000;2022-12-20T17:44:33;14.73;;;9.10;;
70761;SDS011;58360;0.000;0.000;2022-12-20T17:46:57;14.77;;;9.02;;
70761;SDS011;58360;0.000;0.000;2022-12-20T17:49:23;15.02;;;9.07;;
70761;SDS011;58360;0.000;0.000;2022-12-20T17:51:49;15.15;;;8.85;;
70761;SDS011;58360;0.000;0.000;2022-12-20T17:54:19;16.52;;;9.48;;